sensor_id;sensor_type;location;lat;lon;timestamp;temperature;humidity
6841;DHT22;3458;53.678;14.080;2023-08-24T00:01:26;21.00;99.90
6841;DHT22;3458;53.678;14.080;2023-08-24T00:03:52;21.00;99.90
6841;DHT22;3458;53.678;14.080;2023-08-24T00:06:18;21.00;99.90
6841;DHT22;3458;53.678;14.080;2023-08-24T00:08:43;21.00;99.90
6841;DHT22;3458;53.678;14.080;2023-08-24T00:11:09;21.10;99.90
6841;DHT22;3458;53.678;14.080;2023-08-24T00:13:40;21.00;99.90
6841;DHT22;3458;53.678;14.080;2023-08-24T00:16:07;21.00;99.90
6841;DHT22;3458;53.678;14.080;2023-08-24T00:18:32;21.00;99.90
6841;DHT22;3458;53.678;14.080;2023-08-24T00:20:58;21.10;99.90
6841;DHT22;3458;53.678;14.080;2023-08-24T00:23:24;21.10;99.90
6841;DHT22;3458;53.678;14.080;2023-08-24T00:25:49;21.10;99.90
6841;DHT22;3458;53.678;14.080;2023-08-24T00:28:15;21.10;99.90
6841;DHT22;3458;53.678;14.080;2023-08-24T00:30:40;21.10;99.90
6841;DHT22;3458;53.678;14.080;2023-08-24T00:33:06;21.00;99.90
6841;DHT22;3458;53.678;14.080;2023-08-24T00:35:31;20.90;99.90
6841;DHT22;3458;53.678;14.080;2023-08-24T00:37:57;20.80;99.90
6841;DHT22;3458;53.678;14.080;2023-08-24T00:40:23;20.80;99.90
6841;DHT22;3458;53.678;14.080;2023-08-24T00:42:48;20.90;99.90
6841;DHT22;3458;53.678;14.080;2023-08-24T00:45:14;20.90;99.90
6841;DHT22;3458;53.678;14.080;2023-08-24T00:47:41;20.90;99.90
6841;DHT22;3458;53.678;14.080;2023-08-24T00:50:08;20.90;99.90
6841;DHT22;3458;53.678;14.080;2023-08-24T00:52:34;20.90;99.90
6841;DHT22;3458;53.678;14.080;2023-08-24T00:55:01;20.80;99.90
6841;DHT22;3458;53.678;14.080;2023-08-24T00:57:27;20.80;99.90
6841;DHT22;3458;53.678;14.080;2023-08-24T00:59:54;20.80;99.90
6841;DHT22;3458;53.678;14.080;2023-08-24T01:02:20;20.80;99.90
6841;DHT22;3458;53.678;14.080;2023-08-24T01:04:46;20.60;99.90
6841;DHT22;3458;53.678;14.080;2023-08-24T01:07:12;20.70;99.90
6841;DHT22;3458;53.678;14.080;2023-08-24T01:09:38;20.70;99.90
6841;DHT22;3458;53.678;14.080;2023-08-24T01:12:28;20.70;99.90
6841;DHT22;3458;53.678;14.080;2023-08-24T01:18:02;20.80;99.90
6841;DHT22;3458;53.678;14.080;2023-08-24T01:20:30;20.80;99.90
6841;DHT22;3458;53.678;14.080;2023-08-24T01:23:03;20.80;99.90
6841;DHT22;3458;53.678;14.080;2023-08-24T01:25:46;20.80;99.90
6841;DHT22;3458;53.678;14.080;2023-08-24T01:28:14;20.90;99.90
6841;DHT22;3458;53.678;14.080;2023-08-24T01:30:41;20.90;99.90
6841;DHT22;3458;53.678;14.080;2023-08-24T01:33:09;20.90;99.90
6841;DHT22;3458;53.678;14.080;2023-08-24T01:35:37;20.90;99.90
6841;DHT22;3458;53.678;14.080;2023-08-24T01:38:03;20.90;99.90
6841;DHT22;3458;53.678;14.080;2023-08-24T01:40:37;20.90;99.90
6841;DHT22;3458;53.678;14.080;2023-08-24T01:43:06;20.90;99.90
6841;DHT22;3458;53.678;14.080;2023-08-24T01:45:32;20.90;99.90
6841;DHT22;3458;53.678;14.080;2023-08-24T01:48:02;20.90;99.90
6841;DHT22;3458;53.678;14.080;2023-08-24T01:50:29;20.90;99.90
6841;DHT22;3458;53.678;14.080;2023-08-24T01:52:55;20.90;99.90
6841;DHT22;3458;53.678;14.080;2023-08-24T01:55:20;20.80;99.90
6841;DHT22;3458;53.678;14.080;2023-08-24T01:57:47;20.80;99.90
6841;DHT22;3458;53.678;14.080;2023-08-24T02:00:13;20.80;99.90
6841;DHT22;3458;53.678;14.080;2023-08-24T02:02:38;20.80;99.90
6841;DHT22;3458;53.678;14.080;2023-08-24T02:05:04;20.80;99.90
6841;DHT22;3458;53.678;14.080;2023-08-24T02:07:30;20.80;99.90
6841;DHT22;3458;53.678;14.080;2023-08-24T02:09:56;20.80;99.90
6841;DHT22;3458;53.678;14.080;2023-08-24T02:12:22;20.90;99.90
6841;DHT22;3458;53.678;14.080;2023-08-24T02:14:47;20.90;99.90
6841;DHT22;3458;53.678;14.080;2023-08-24T02:17:13;20.80;99.90
6841;DHT22;3458;53.678;14.080;2023-08-24T02:19:39;20.80;99.90
6841;DHT22;3458;53.678;14.080;2023-08-24T02:22:06;20.80;99.90
6841;DHT22;3458;53.678;14.080;2023-08-24T02:24:32;20.80;99.90
6841;DHT22;3458;53.678;14.080;2023-08-24T02:26:57;20.80;99.90
6841;DHT22;3458;53.678;14.080;2023-08-24T02:29:23;20.80;99.90
6841;DHT22;3458;53.678;14.080;2023-08-24T02:31:49;20.80;99.90
6841;DHT22;3458;53.678;14.080;2023-08-24T02:34:16;20.80;99.90
6841;DHT22;3458;53.678;14.080;2023-08-24T02:36:41;20.80;99.90
6841;DHT22;3458;53.678;14.080;2023-08-24T02:39:07;20.80;99.90
6841;DHT22;3458;53.678;14.080;2023-08-24T02:41:33;20.80;99.90
6841;DHT22;3458;53.678;14.080;2023-08-24T02:43:59;20.70;99.90
6841;DHT22;3458;53.678;14.080;2023-08-24T02:46:24;20.80;99.90
6841;DHT22;3458;53.678;14.080;2023-08-24T02:48:50;20.80;99.90
6841;DHT22;3458;53.678;14.080;2023-08-24T02:51:15;20.70;99.90
6841;DHT22;3458;53.678;14.080;2023-08-24T02:53:41;20.70;99.90
6841;DHT22;3458;53.678;14.080;2023-08-24T02:56:06;20.70;99.90
6841;DHT22;3458;53.678;14.080;2023-08-24T02:58:32;20.70;99.90
6841;DHT22;3458;53.678;14.080;2023-08-24T03:00:57;20.70;99.90
6841;DHT22;3458;53.678;14.080;2023-08-24T03:03:23;20.60;99.90
6841;DHT22;3458;53.678;14.080;2023-08-24T03:06:00;20.70;99.90
6841;DHT22;3458;53.678;14.080;2023-08-24T03:08:25;20.60;99.90
6841;DHT22;3458;53.678;14.080;2023-08-24T03:10:51;20.60;99.90
6841;DHT22;3458;53.678;14.080;2023-08-24T03:13:17;20.60;99.90
6841;DHT22;3458;53.678;14.080;2023-08-24T03:15:42;20.60;99.90
6841;DHT22;3458;53.678;14.080;2023-08-24T03:18:11;20.60;99.90
6841;DHT22;3458;53.678;14.080;2023-08-24T03:20:36;20.60;99.90
6841;DHT22;3458;53.678;14.080;2023-08-24T03:23:02;20.50;99.90
6841;DHT22;3458;53.678;14.080;2023-08-24T03:25:28;20.60;99.90
6841;DHT22;3458;53.678;14.080;2023-08-24T03:27:54;20.50;99.90
6841;DHT22;3458;53.678;14.080;2023-08-24T03:30:20;20.50;99.90
6841;DHT22;3458;53.678;14.080;2023-08-24T03:32:46;20.60;99.90
6841;DHT22;3458;53.678;14.080;2023-08-24T03:35:11;20.50;99.90
6841;DHT22;3458;53.678;14.080;2023-08-24T03:37:37;20.50;99.90
6841;DHT22;3458;53.678;14.080;2023-08-24T03:40:03;20.60;99.90
6841;DHT22;3458;53.678;14.080;2023-08-24T03:42:29;20.50;99.90
6841;DHT22;3458;53.678;14.080;2023-08-24T03:44:54;20.50;99.90
6841;DHT22;3458;53.678;14.080;2023-08-24T03:47:20;20.50;99.90
6841;DHT22;3458;53.678;14.080;2023-08-24T03:49:45;20.50;99.90
6841;DHT22;3458;53.678;14.080;2023-08-24T03:52:11;20.50;99.90
6841;DHT22;3458;53.678;14.080;2023-08-24T03:54:36;20.50;99.90
6841;DHT22;3458;53.678;14.080;2023-08-24T03:57:02;20.50;99.90
6841;DHT22;3458;53.678;14.080;2023-08-24T03:59:28;20.50;99.90
6841;DHT22;3458;53.678;14.080;2023-08-24T04:01:53;20.50;99.90
6841;DHT22;3458;53.678;14.080;2023-08-24T04:04:19;20.50;99.90
6841;DHT22;3458;53.678;14.080;2023-08-24T04:06:45;20.50;99.90
6841;DHT22;3458;53.678;14.080;2023-08-24T04:09:10;20.50;99.90
6841;DHT22;3458;53.678;14.080;2023-08-24T04:11:36;20.40;99.90
6841;DHT22;3458;53.678;14.080;2023-08-24T04:14:01;20.50;99.90
6841;DHT22;3458;53.678;14.080;2023-08-24T04:16:27;20.50;99.90
6841;DHT22;3458;53.678;14.080;2023-08-24T04:18:52;20.50;99.90
6841;DHT22;3458;53.678;14.080;2023-08-24T04:21:18;20.50;99.90
6841;DHT22;3458;53.678;14.080;2023-08-24T04:23:43;20.50;99.90
6841;DHT22;3458;53.678;14.080;2023-08-24T04:26:13;20.50;99.90
6841;DHT22;3458;53.678;14.080;2023-08-24T04:28:39;20.50;99.90
6841;DHT22;3458;53.678;14.080;2023-08-24T04:31:05;20.40;99.90
6841;DHT22;3458;53.678;14.080;2023-08-24T04:33:31;20.50;99.90
6841;DHT22;3458;53.678;14.080;2023-08-24T04:35:56;20.40;99.90
6841;DHT22;3458;53.678;14.080;2023-08-24T04:38:22;20.30;99.90
6841;DHT22;3458;53.678;14.080;2023-08-24T04:40:52;20.20;99.90
6841;DHT22;3458;53.678;14.080;2023-08-24T04:43:18;20.20;99.90
6841;DHT22;3458;53.678;14.080;2023-08-24T04:45:46;20.20;99.90
6841;DHT22;3458;53.678;14.080;2023-08-24T04:48:12;20.30;99.90
6841;DHT22;3458;53.678;14.080;2023-08-24T04:50:37;20.30;99.90
6841;DHT22;3458;53.678;14.080;2023-08-24T04:53:03;20.30;99.90
6841;DHT22;3458;53.678;14.080;2023-08-24T04:55:28;20.30;99.90
6841;DHT22;3458;53.678;14.080;2023-08-24T04:57:54;20.30;99.90
6841;DHT22;3458;53.678;14.080;2023-08-24T05:00:19;20.30;99.90
6841;DHT22;3458;53.678;14.080;2023-08-24T05:02:45;20.40;99.90
6841;DHT22;3458;53.678;14.080;2023-08-24T05:05:10;20.40;99.90
6841;DHT22;3458;53.678;14.080;2023-08-24T05:07:39;20.40;99.90
6841;DHT22;3458;53.678;14.080;2023-08-24T05:10:05;20.40;99.90
6841;DHT22;3458;53.678;14.080;2023-08-24T05:12:31;20.40;99.90
6841;DHT22;3458;53.678;14.080;2023-08-24T05:14:59;20.40;99.90
6841;DHT22;3458;53.678;14.080;2023-08-24T05:17:24;20.40;99.90
6841;DHT22;3458;53.678;14.080;2023-08-24T05:19:53;20.40;99.90
6841;DHT22;3458;53.678;14.080;2023-08-24T05:22:18;20.40;99.90
6841;DHT22;3458;53.678;14.080;2023-08-24T05:24:44;20.40;99.90
6841;DHT22;3458;53.678;14.080;2023-08-24T05:27:09;20.40;99.90
6841;DHT22;3458;53.678;14.080;2023-08-24T05:29:35;20.40;99.90
6841;DHT22;3458;53.678;14.080;2023-08-24T05:32:00;20.40;99.90
6841;DHT22;3458;53.678;14.080;2023-08-24T05:34:26;20.40;99.90
6841;DHT22;3458;53.678;14.080;2023-08-24T05:36:51;20.40;99.90
6841;DHT22;3458;53.678;14.080;2023-08-24T05:39:17;20.50;99.90
6841;DHT22;3458;53.678;14.080;2023-08-24T05:41:42;20.50;99.90
6841;DHT22;3458;53.678;14.080;2023-08-24T05:44:08;20.50;99.90
6841;DHT22;3458;53.678;14.080;2023-08-24T05:46:33;20.50;99.90
6841;DHT22;3458;53.678;14.080;2023-08-24T05:49:02;20.50;99.90
6841;DHT22;3458;53.678;14.080;2023-08-24T05:51:27;20.50;99.90
6841;DHT22;3458;53.678;14.080;2023-08-24T05:53:54;20.50;99.90
6841;DHT22;3458;53.678;14.080;2023-08-24T05:56:21;20.40;99.90
6841;DHT22;3458;53.678;14.080;2023-08-24T05:58:48;20.40;99.90
6841;DHT22;3458;53.678;14.080;2023-08-24T06:01:13;20.40;99.90
6841;DHT22;3458;53.678;14.080;2023-08-24T06:03:39;20.50;99.90
6841;DHT22;3458;53.678;14.080;2023-08-24T06:06:04;20.50;99.90
6841;DHT22;3458;53.678;14.080;2023-08-24T06:08:30;20.40;99.90
6841;DHT22;3458;53.678;14.080;2023-08-24T06:10:57;20.40;99.90
6841;DHT22;3458;53.678;14.080;2023-08-24T06:13:22;20.40;99.90
6841;DHT22;3458;53.678;14.080;2023-08-24T06:15:48;20.50;99.90
6841;DHT22;3458;53.678;14.080;2023-08-24T06:18:13;20.50;99.90
6841;DHT22;3458;53.678;14.080;2023-08-24T06:20:39;20.50;99.90
6841;DHT22;3458;53.678;14.080;2023-08-24T06:23:04;20.50;99.90
6841;DHT22;3458;53.678;14.080;2023-08-24T06:25:30;20.60;99.90
6841;DHT22;3458;53.678;14.080;2023-08-24T06:27:57;20.60;99.90
6841;DHT22;3458;53.678;14.080;2023-08-24T06:30:24;20.70;99.90
6841;DHT22;3458;53.678;14.080;2023-08-24T06:32:50;20.70;99.90
6841;DHT22;3458;53.678;14.080;2023-08-24T06:35:15;20.80;99.90
6841;DHT22;3458;53.678;14.080;2023-08-24T06:37:41;20.80;99.90
6841;DHT22;3458;53.678;14.080;2023-08-24T06:40:07;20.80;99.90
6841;DHT22;3458;53.678;14.080;2023-08-24T06:42:32;20.90;99.90
6841;DHT22;3458;53.678;14.080;2023-08-24T06:44:58;20.90;99.90
6841;DHT22;3458;53.678;14.080;2023-08-24T06:47:23;20.90;99.90
6841;DHT22;3458;53.678;14.080;2023-08-24T06:49:50;20.90;99.90
6841;DHT22;3458;53.678;14.080;2023-08-24T06:52:15;20.90;99.90
6841;DHT22;3458;53.678;14.080;2023-08-24T06:54:41;20.90;99.90
6841;DHT22;3458;53.678;14.080;2023-08-24T06:57:06;20.90;99.90
6841;DHT22;3458;53.678;14.080;2023-08-24T06:59:32;20.90;99.90
6841;DHT22;3458;53.678;14.080;2023-08-24T07:01:57;20.90;99.90
6841;DHT22;3458;53.678;14.080;2023-08-24T07:04:23;20.90;99.90
6841;DHT22;3458;53.678;14.080;2023-08-24T07:06:48;20.90;99.90
6841;DHT22;3458;53.678;14.080;2023-08-24T07:09:14;20.90;99.90
6841;DHT22;3458;53.678;14.080;2023-08-24T07:11:40;21.00;99.90
6841;DHT22;3458;53.678;14.080;2023-08-24T07:14:06;21.00;99.90
6841;DHT22;3458;53.678;14.080;2023-08-24T07:16:31;21.00;99.90
6841;DHT22;3458;53.678;14.080;2023-08-24T07:18:57;21.00;99.90
6841;DHT22;3458;53.678;14.080;2023-08-24T07:21:22;21.00;99.90
6841;DHT22;3458;53.678;14.080;2023-08-24T07:23:48;21.00;99.90
6841;DHT22;3458;53.678;14.080;2023-08-24T07:26:13;21.10;99.90
6841;DHT22;3458;53.678;14.080;2023-08-24T07:28:39;21.10;99.90
6841;DHT22;3458;53.678;14.080;2023-08-24T07:31:09;21.10;99.90
6841;DHT22;3458;53.678;14.080;2023-08-24T07:33:36;21.10;99.90
6841;DHT22;3458;53.678;14.080;2023-08-24T07:36:04;21.20;99.90
6841;DHT22;3458;53.678;14.080;2023-08-24T07:38:29;21.20;99.90
6841;DHT22;3458;53.678;14.080;2023-08-24T07:40:56;21.10;99.90
6841;DHT22;3458;53.678;14.080;2023-08-24T07:43:21;21.10;99.90
6841;DHT22;3458;53.678;14.080;2023-08-24T07:45:47;21.10;99.90
6841;DHT22;3458;53.678;14.080;2023-08-24T07:48:12;21.10;99.90
6841;DHT22;3458;53.678;14.080;2023-08-24T07:50:38;21.20;99.90
6841;DHT22;3458;53.678;14.080;2023-08-24T07:53:03;21.20;99.90
6841;DHT22;3458;53.678;14.080;2023-08-24T07:55:30;21.30;99.90
6841;DHT22;3458;53.678;14.080;2023-08-24T07:57:55;21.30;99.90
6841;DHT22;3458;53.678;14.080;2023-08-24T08:00:21;21.40;99.90
6841;DHT22;3458;53.678;14.080;2023-08-24T08:02:49;21.40;99.90
6841;DHT22;3458;53.678;14.080;2023-08-24T08:05:16;21.50;99.90
6841;DHT22;3458;53.678;14.080;2023-08-24T08:07:41;21.60;99.90
6841;DHT22;3458;53.678;14.080;2023-08-24T08:10:07;21.70;99.90
6841;DHT22;3458;53.678;14.080;2023-08-24T08:12:33;21.70;99.90
6841;DHT22;3458;53.678;14.080;2023-08-24T08:14:59;21.70;99.90
6841;DHT22;3458;53.678;14.080;2023-08-24T08:17:26;21.70;99.90
6841;DHT22;3458;53.678;14.080;2023-08-24T08:19:56;21.80;99.90
6841;DHT22;3458;53.678;14.080;2023-08-24T08:22:23;21.90;99.90
6841;DHT22;3458;53.678;14.080;2023-08-24T08:24:48;21.90;99.90
6841;DHT22;3458;53.678;14.080;2023-08-24T08:27:15;22.00;99.90
6841;DHT22;3458;53.678;14.080;2023-08-24T08:29:40;22.00;99.90
6841;DHT22;3458;53.678;14.080;2023-08-24T08:32:06;22.00;99.90
6841;DHT22;3458;53.678;14.080;2023-08-24T08:34:33;22.10;99.90
6841;DHT22;3458;53.678;14.080;2023-08-24T08:36:58;22.10;99.90
6841;DHT22;3458;53.678;14.080;2023-08-24T08:39:24;22.20;99.90
6841;DHT22;3458;53.678;14.080;2023-08-24T08:41:49;22.20;99.90
6841;DHT22;3458;53.678;14.080;2023-08-24T08:44:15;22.30;99.90
6841;DHT22;3458;53.678;14.080;2023-08-24T08:46:42;22.30;99.90
6841;DHT22;3458;53.678;14.080;2023-08-24T08:49:08;22.40;99.90
6841;DHT22;3458;53.678;14.080;2023-08-24T08:51:38;22.40;99.90
6841;DHT22;3458;53.678;14.080;2023-08-24T08:54:04;22.40;99.90
6841;DHT22;3458;53.678;14.080;2023-08-24T08:56:31;22.40;99.90
6841;DHT22;3458;53.678;14.080;2023-08-24T08:58:59;22.50;99.90
6841;DHT22;3458;53.678;14.080;2023-08-24T09:01:25;22.50;99.90
6841;DHT22;3458;53.678;14.080;2023-08-24T09:03:52;22.50;99.90
6841;DHT22;3458;53.678;14.080;2023-08-24T09:06:18;22.60;99.90
6841;DHT22;3458;53.678;14.080;2023-08-24T09:08:44;22.70;99.90
6841;DHT22;3458;53.678;14.080;2023-08-24T09:11:09;22.80;99.90
6841;DHT22;3458;53.678;14.080;2023-08-24T09:13:35;22.80;99.90
6841;DHT22;3458;53.678;14.080;2023-08-24T09:16:05;22.90;99.90
6841;DHT22;3458;53.678;14.080;2023-08-24T09:18:36;23.00;99.90
6841;DHT22;3458;53.678;14.080;2023-08-24T09:21:10;23.00;99.90
6841;DHT22;3458;53.678;14.080;2023-08-24T09:23:35;23.10;99.90
6841;DHT22;3458;53.678;14.080;2023-08-24T09:26:01;23.10;99.90
6841;DHT22;3458;53.678;14.080;2023-08-24T09:28:26;23.10;99.90
6841;DHT22;3458;53.678;14.080;2023-08-24T09:30:53;23.20;99.90
6841;DHT22;3458;53.678;14.080;2023-08-24T09:33:19;23.30;99.90
6841;DHT22;3458;53.678;14.080;2023-08-24T09:35:52;23.40;99.90
6841;DHT22;3458;53.678;14.080;2023-08-24T09:38:18;23.50;99.90
6841;DHT22;3458;53.678;14.080;2023-08-24T09:40:45;23.50;99.90
6841;DHT22;3458;53.678;14.080;2023-08-24T09:43:14;23.60;99.90
6841;DHT22;3458;53.678;14.080;2023-08-24T09:45:48;23.60;99.90
6841;DHT22;3458;53.678;14.080;2023-08-24T09:48:14;23.70;99.90
6841;DHT22;3458;53.678;14.080;2023-08-24T09:50:41;23.80;99.90
6841;DHT22;3458;53.678;14.080;2023-08-24T09:53:08;23.90;99.90
6841;DHT22;3458;53.678;14.080;2023-08-24T09:55:38;24.00;99.90
6841;DHT22;3458;53.678;14.080;2023-08-24T09:58:07;24.20;99.90
6841;DHT22;3458;53.678;14.080;2023-08-24T10:00:35;24.30;99.90
6841;DHT22;3458;53.678;14.080;2023-08-24T10:03:02;24.40;99.90
6841;DHT22;3458;53.678;14.080;2023-08-24T10:05:31;24.50;99.90
6841;DHT22;3458;53.678;14.080;2023-08-24T10:07:58;24.60;99.90
6841;DHT22;3458;53.678;14.080;2023-08-24T10:10:25;24.70;99.90
6841;DHT22;3458;53.678;14.080;2023-08-24T10:13:08;24.80;99.90
6841;DHT22;3458;53.678;14.080;2023-08-24T10:15:37;24.80;99.90
6841;DHT22;3458;53.678;14.080;2023-08-24T10:18:12;24.80;99.90
6841;DHT22;3458;53.678;14.080;2023-08-24T10:20:38;24.80;99.90
6841;DHT22;3458;53.678;14.080;2023-08-24T10:23:05;24.80;99.90
6841;DHT22;3458;53.678;14.080;2023-08-24T10:25:31;24.80;99.90
6841;DHT22;3458;53.678;14.080;2023-08-24T10:27:58;24.80;99.90
6841;DHT22;3458;53.678;14.080;2023-08-24T10:30:25;24.80;99.90
6841;DHT22;3458;53.678;14.080;2023-08-24T10:32:51;24.90;99.90
6841;DHT22;3458;53.678;14.080;2023-08-24T10:35:19;24.90;99.90
6841;DHT22;3458;53.678;14.080;2023-08-24T10:37:45;24.90;99.90
6841;DHT22;3458;53.678;14.080;2023-08-24T10:40:12;25.00;99.90
6841;DHT22;3458;53.678;14.080;2023-08-24T10:42:45;25.20;99.90
6841;DHT22;3458;53.678;14.080;2023-08-24T10:45:13;25.30;99.90
6841;DHT22;3458;53.678;14.080;2023-08-24T10:47:52;25.40;99.90
6841;DHT22;3458;53.678;14.080;2023-08-24T10:50:19;25.60;99.90
6841;DHT22;3458;53.678;14.080;2023-08-24T10:52:45;25.70;99.90
6841;DHT22;3458;53.678;14.080;2023-08-24T10:55:27;25.80;99.90
6841;DHT22;3458;53.678;14.080;2023-08-24T10:57:59;25.90;99.90
6841;DHT22;3458;53.678;14.080;2023-08-24T11:00:29;25.90;99.90
6841;DHT22;3458;53.678;14.080;2023-08-24T11:02:56;26.00;99.90
6841;DHT22;3458;53.678;14.080;2023-08-24T11:07:57;26.20;99.90
6841;DHT22;3458;53.678;14.080;2023-08-24T11:10:24;26.20;99.90
6841;DHT22;3458;53.678;14.080;2023-08-24T11:13:07;26.10;99.90
6841;DHT22;3458;53.678;14.080;2023-08-24T11:15:40;25.90;99.90
6841;DHT22;3458;53.678;14.080;2023-08-24T11:18:22;25.80;99.90
6841;DHT22;3458;53.678;14.080;2023-08-24T11:21:00;25.70;99.90
6841;DHT22;3458;53.678;14.080;2023-08-24T11:23:25;25.70;99.90
6841;DHT22;3458;53.678;14.080;2023-08-24T11:25:52;25.80;99.90
6841;DHT22;3458;53.678;14.080;2023-08-24T11:28:22;25.90;99.90
6841;DHT22;3458;53.678;14.080;2023-08-24T11:30:48;25.90;99.90
6841;DHT22;3458;53.678;14.080;2023-08-24T11:33:16;25.90;99.90
6841;DHT22;3458;53.678;14.080;2023-08-24T11:35:43;25.90;99.90
6841;DHT22;3458;53.678;14.080;2023-08-24T11:38:09;25.80;99.90
6841;DHT22;3458;53.678;14.080;2023-08-24T11:40:35;25.80;99.90
6841;DHT22;3458;53.678;14.080;2023-08-24T11:43:01;25.70;99.90
6841;DHT22;3458;53.678;14.080;2023-08-24T11:45:34;25.70;99.90
6841;DHT22;3458;53.678;14.080;2023-08-24T11:48:02;25.50;99.90
6841;DHT22;3458;53.678;14.080;2023-08-24T11:50:29;25.40;99.90
6841;DHT22;3458;53.678;14.080;2023-08-24T11:52:55;25.40;99.90
6841;DHT22;3458;53.678;14.080;2023-08-24T11:55:22;25.50;99.90
6841;DHT22;3458;53.678;14.080;2023-08-24T11:57:48;25.70;99.90
6841;DHT22;3458;53.678;14.080;2023-08-24T12:00:13;25.90;99.90
6841;DHT22;3458;53.678;14.080;2023-08-24T12:02:40;26.00;99.90
6841;DHT22;3458;53.678;14.080;2023-08-24T12:05:08;26.30;99.90
6841;DHT22;3458;53.678;14.080;2023-08-24T12:07:45;26.50;99.90
6841;DHT22;3458;53.678;14.080;2023-08-24T12:10:12;26.70;99.90
6841;DHT22;3458;53.678;14.080;2023-08-24T12:12:37;27.00;99.30
6841;DHT22;3458;53.678;14.080;2023-08-24T12:15:03;27.30;99.60
6841;DHT22;3458;53.678;14.080;2023-08-24T12:17:29;27.30;97.60
6841;DHT22;3458;53.678;14.080;2023-08-24T12:19:59;27.00;96.60
6841;DHT22;3458;53.678;14.080;2023-08-24T12:22:25;26.90;97.50
6841;DHT22;3458;53.678;14.080;2023-08-24T12:24:51;27.00;97.50
6841;DHT22;3458;53.678;14.080;2023-08-24T12:27:22;27.10;97.90
6841;DHT22;3458;53.678;14.080;2023-08-24T12:29:48;27.30;96.70
6841;DHT22;3458;53.678;14.080;2023-08-24T12:32:14;27.50;94.80
6841;DHT22;3458;53.678;14.080;2023-08-24T12:34:46;27.80;94.30
6841;DHT22;3458;53.678;14.080;2023-08-24T12:37:12;28.20;92.50
6841;DHT22;3458;53.678;14.080;2023-08-24T12:39:38;28.00;91.50
6841;DHT22;3458;53.678;14.080;2023-08-24T12:42:05;27.70;92.30
6841;DHT22;3458;53.678;14.080;2023-08-24T12:44:30;27.80;92.30
6841;DHT22;3458;53.678;14.080;2023-08-24T12:46:56;27.90;92.10
6841;DHT22;3458;53.678;14.080;2023-08-24T12:49:22;27.90;90.80
6841;DHT22;3458;53.678;14.080;2023-08-24T12:51:48;27.80;89.60
6841;DHT22;3458;53.678;14.080;2023-08-24T12:54:13;27.60;91.40
6841;DHT22;3458;53.678;14.080;2023-08-24T12:56:39;27.30;92.40
6841;DHT22;3458;53.678;14.080;2023-08-24T12:59:06;27.00;93.70
6841;DHT22;3458;53.678;14.080;2023-08-24T13:01:31;26.80;94.80
6841;DHT22;3458;53.678;14.080;2023-08-24T13:03:57;26.80;95.50
6841;DHT22;3458;53.678;14.080;2023-08-24T13:06:22;26.90;95.70
6841;DHT22;3458;53.678;14.080;2023-08-24T13:08:48;27.20;96.10
6841;DHT22;3458;53.678;14.080;2023-08-24T13:11:13;27.60;97.10
6841;DHT22;3458;53.678;14.080;2023-08-24T13:13:39;27.90;97.20
6841;DHT22;3458;53.678;14.080;2023-08-24T13:16:04;28.00;96.80
6841;DHT22;3458;53.678;14.080;2023-08-24T13:18:30;27.90;95.70
6841;DHT22;3458;53.678;14.080;2023-08-24T13:20:55;27.60;95.20
6841;DHT22;3458;53.678;14.080;2023-08-24T13:23:21;27.50;95.40
6841;DHT22;3458;53.678;14.080;2023-08-24T13:25:46;27.50;95.20
6841;DHT22;3458;53.678;14.080;2023-08-24T13:28:12;27.50;95.90
6841;DHT22;3458;53.678;14.080;2023-08-24T13:30:37;27.60;96.50
6841;DHT22;3458;53.678;14.080;2023-08-24T13:33:03;27.70;96.00
6841;DHT22;3458;53.678;14.080;2023-08-24T13:35:28;27.70;94.80
6841;DHT22;3458;53.678;14.080;2023-08-24T13:37:54;27.60;95.10
6841;DHT22;3458;53.678;14.080;2023-08-24T13:40:20;27.40;95.50
6841;DHT22;3458;53.678;14.080;2023-08-24T13:42:45;27.30;95.60
6841;DHT22;3458;53.678;14.080;2023-08-24T13:45:11;27.70;97.20
6841;DHT22;3458;53.678;14.080;2023-08-24T13:47:36;28.50;98.00
6841;DHT22;3458;53.678;14.080;2023-08-24T13:50:02;29.20;94.70
6841;DHT22;3458;53.678;14.080;2023-08-24T13:52:28;29.80;92.50
6841;DHT22;3458;53.678;14.080;2023-08-24T13:54:53;30.30;91.10
6841;DHT22;3458;53.678;14.080;2023-08-24T13:57:19;30.70;89.80
6841;DHT22;3458;53.678;14.080;2023-08-24T13:59:44;31.00;85.30
6841;DHT22;3458;53.678;14.080;2023-08-24T14:02:10;31.30;84.00
6841;DHT22;3458;53.678;14.080;2023-08-24T14:04:37;31.50;82.80
6841;DHT22;3458;53.678;14.080;2023-08-24T14:07:03;31.80;80.90
6841;DHT22;3458;53.678;14.080;2023-08-24T14:09:28;32.00;80.80
6841;DHT22;3458;53.678;14.080;2023-08-24T14:11:54;32.40;80.60
6841;DHT22;3458;53.678;14.080;2023-08-24T14:14:19;32.50;77.50
6841;DHT22;3458;53.678;14.080;2023-08-24T14:16:45;32.60;77.90
6841;DHT22;3458;53.678;14.080;2023-08-24T14:19:11;32.60;76.40
6841;DHT22;3458;53.678;14.080;2023-08-24T14:21:37;32.40;74.70
6841;DHT22;3458;53.678;14.080;2023-08-24T14:24:02;32.20;73.80
6841;DHT22;3458;53.678;14.080;2023-08-24T14:26:28;32.00;73.50
6841;DHT22;3458;53.678;14.080;2023-08-24T14:28:55;31.80;76.10
6841;DHT22;3458;53.678;14.080;2023-08-24T14:31:22;31.70;76.20
6841;DHT22;3458;53.678;14.080;2023-08-24T14:33:48;31.60;75.90
6841;DHT22;3458;53.678;14.080;2023-08-24T14:36:15;31.40;75.50
6841;DHT22;3458;53.678;14.080;2023-08-24T14:38:41;31.30;75.10
6841;DHT22;3458;53.678;14.080;2023-08-24T14:41:10;31.00;75.30
6841;DHT22;3458;53.678;14.080;2023-08-24T14:43:36;30.60;76.00
6841;DHT22;3458;53.678;14.080;2023-08-24T14:46:02;30.20;77.80
6841;DHT22;3458;53.678;14.080;2023-08-24T14:48:29;29.90;80.60
6841;DHT22;3458;53.678;14.080;2023-08-24T14:50:54;29.60;81.90
6841;DHT22;3458;53.678;14.080;2023-08-24T14:53:20;29.50;82.20
6841;DHT22;3458;53.678;14.080;2023-08-24T14:55:45;29.60;81.20
6841;DHT22;3458;53.678;14.080;2023-08-24T14:58:11;30.20;80.30
6841;DHT22;3458;53.678;14.080;2023-08-24T15:00:36;30.50;79.80
6841;DHT22;3458;53.678;14.080;2023-08-24T15:03:02;30.60;79.70
6841;DHT22;3458;53.678;14.080;2023-08-24T15:05:28;30.40;77.80
6841;DHT22;3458;53.678;14.080;2023-08-24T15:07:54;30.10;78.40
6841;DHT22;3458;53.678;14.080;2023-08-24T15:10:19;29.80;79.40
6841;DHT22;3458;53.678;14.080;2023-08-24T15:12:45;29.50;80.40
6841;DHT22;3458;53.678;14.080;2023-08-24T15:15:12;29.10;81.80
6841;DHT22;3458;53.678;14.080;2023-08-24T15:17:39;28.70;83.10
6841;DHT22;3458;53.678;14.080;2023-08-24T15:20:05;28.60;84.20
6841;DHT22;3458;53.678;14.080;2023-08-24T15:22:31;28.90;84.60
6841;DHT22;3458;53.678;14.080;2023-08-24T15:24:57;30.40;83.60
6841;DHT22;3458;53.678;14.080;2023-08-24T15:27:22;31.90;78.30
6841;DHT22;3458;53.678;14.080;2023-08-24T15:29:48;33.00;74.40
6841;DHT22;3458;53.678;14.080;2023-08-24T15:32:13;33.80;71.00
6841;DHT22;3458;53.678;14.080;2023-08-24T15:34:39;34.70;67.00
6841;DHT22;3458;53.678;14.080;2023-08-24T15:37:05;35.20;62.50
6841;DHT22;3458;53.678;14.080;2023-08-24T15:39:36;35.40;60.40
6841;DHT22;3458;53.678;14.080;2023-08-24T15:42:01;35.40;58.40
6841;DHT22;3458;53.678;14.080;2023-08-24T15:44:27;35.30;57.60
6841;DHT22;3458;53.678;14.080;2023-08-24T15:46:52;34.80;57.40